createdAt,value
2018-07-20T00:00:10.524Z,18
2018-07-20T00:00:23.063Z,18
2018-07-20T00:00:35.509Z,18
2018-07-20T00:00:47.920Z,18
2018-07-20T00:01:00.339Z,18
2018-07-20T00:01:12.771Z,18
2018-07-20T00:01:25.167Z,18
2018-07-20T00:01:37.585Z,18
2018-07-20T00:01:49.984Z,18
2018-07-20T00:02:02.537Z,18
2018-07-20T00:02:14.924Z,18
2018-07-20T00:02:27.347Z,18
2018-07-20T00:02:39.739Z,18
2018-07-20T00:02:52.127Z,17.9444444444
2018-07-20T00:03:04.548Z,17.9444444444
2018-07-20T00:03:16.933Z,17.9444444444
2018-07-20T00:03:29.324Z,17.9444444444
2018-07-20T00:03:41.887Z,17.9444444444
2018-07-20T00:03:54.287Z,17.9444444444
2018-07-20T00:04:06.677Z,17.9444444444
2018-07-20T00:04:19.061Z,17.9444444444
2018-07-20T00:04:31.458Z,17.9444444444
2018-07-20T00:04:43.893Z,17.8888888889
2018-07-20T00:04:56.292Z,17.8888888889
2018-07-20T00:05:08.708Z,17.8888888889
2018-07-20T00:05:21.087Z,17.8888888889
2018-07-20T00:05:33.482Z,17.8888888889
2018-07-20T00:05:45.891Z,17.8888888889
2018-07-20T00:05:58.284Z,17.8333333333
2018-07-20T00:06:10.709Z,17.8888888889
2018-07-20T00:06:23.165Z,17.8333333333
2018-07-20T00:06:35.575Z,17.8888888889
2018-07-20T00:06:47.969Z,17.8333333333
2018-07-20T00:07:00.368Z,17.8333333333
2018-07-20T00:07:12.808Z,17.8333333333
2018-07-20T00:07:25.182Z,17.8333333333
2018-07-20T00:07:37.584Z,17.8333333333
2018-07-20T00:07:49.972Z,17.8333333333
2018-07-20T00:08:02.600Z,17.8333333333
2018-07-20T00:08:15.658Z,17.8333333333
2018-07-20T00:08:28.237Z,17.8333333333
2018-07-20T00:08:40.699Z,17.8333333333
2018-07-20T00:08:53.096Z,17.7777777778
2018-07-20T00:09:05.494Z,17.7777777778
2018-07-20T00:09:17.876Z,17.7777777778
2018-07-20T00:09:30.288Z,17.7777777778
2018-07-20T00:09:42.903Z,17.7777777778
2018-07-20T00:09:55.320Z,17.7777777778
2018-07-20T00:10:07.735Z,17.7777777778
2018-07-20T00:10:20.143Z,17.7777777778
2018-07-20T00:10:32.537Z,17.7777777778
2018-07-20T00:10:45.073Z,17.7777777778
2018-07-20T00:10:57.467Z,17.7777777778
2018-07-20T00:11:09.913Z,17.7777777778
2018-07-20T00:11:22.318Z,17.7777777778
2018-07-20T00:11:34.719Z,17.7777777778
2018-07-20T00:11:47.134Z,17.7222222222
2018-07-20T00:11:59.550Z,17.7222222222
2018-07-20T00:12:11.949Z,17.7222222222
2018-07-20T00:12:24.364Z,17.7222222222
2018-07-20T00:12:36.763Z,17.7222222222
2018-07-20T00:12:49.160Z,17.7222222222
2018-07-20T00:13:01.658Z,17.7222222222
2018-07-20T00:13:14.054Z,17.7222222222
2018-07-20T00:13:26.628Z,17.7222222222
2018-07-20T00:13:39.044Z,17.6666666667
2018-07-20T00:13:51.449Z,17.6666666667
2018-07-20T00:14:03.884Z,17.7222222222
2018-07-20T00:14:16.289Z,17.7222222222
2018-07-20T00:14:28.676Z,17.7222222222
2018-07-20T00:14:41.066Z,17.6666666667
2018-07-20T00:14:53.457Z,17.6666666667
2018-07-20T00:15:05.874Z,17.6666666667
2018-07-20T00:15:18.344Z,17.6666666667
2018-07-20T00:15:30.753Z,17.6666666667
2018-07-20T00:15:43.138Z,17.6666666667
2018-07-20T00:15:55.527Z,17.6666666667
2018-07-20T00:16:07.918Z,17.6666666667
2018-07-20T00:16:20.307Z,17.6666666667
2018-07-20T00:16:32.695Z,17.6111111111
2018-07-20T00:16:45.524Z,17.6111111111
2018-07-20T00:16:58.472Z,17.6111111111
2018-07-20T00:17:10.873Z,17.6666666667
2018-07-20T00:17:23.262Z,17.6111111111
2018-07-20T00:17:35.656Z,17.6111111111
2018-07-20T00:17:48.053Z,17.6111111111
2018-07-20T00:18:00.455Z,17.6111111111
2018-07-20T00:18:12.849Z,17.6111111111
2018-07-20T00:18:25.284Z,17.5555555556
2018-07-20T00:18:37.689Z,17.5555555556
2018-07-20T00:18:50.097Z,17.5555555556
2018-07-20T00:19:02.625Z,17.5555555556
2018-07-20T00:19:15.038Z,17.5555555556
2018-07-20T00:19:27.439Z,17.6111111111
2018-07-20T00:19:39.873Z,17.5555555556
2018-07-20T00:19:52.268Z,17.5555555556
2018-07-20T00:20:04.647Z,17.5555555556
2018-07-20T00:20:17.045Z,17.5555555556
2018-07-20T00:20:29.437Z,17.5
2018-07-20T00:20:41.972Z,17.5555555556
2018-07-20T00:20:54.370Z,17.5
2018-07-20T00:21:06.789Z,17.5
2018-07-20T00:21:19.212Z,17.5555555556
2018-07-20T00:21:31.607Z,17.5
2018-07-20T00:21:44.011Z,17.5
2018-07-20T00:21:56.404Z,17.5
2018-07-20T00:22:09.061Z,17.5
2018-07-20T00:22:22.205Z,17.5
2018-07-20T00:22:34.617Z,17.5
2018-07-20T00:22:47.019Z,17.5
2018-07-20T00:22:59.423Z,17.5
2018-07-20T00:23:12.004Z,17.5
2018-07-20T00:23:24.413Z,17.5
2018-07-20T00:23:36.799Z,17.5
2018-07-20T00:23:49.200Z,17.4444444444
2018-07-20T00:24:01.592Z,17.4444444444
2018-07-20T00:24:13.991Z,17.4444444444
2018-07-20T00:24:26.477Z,17.4444444444
2018-07-20T00:24:38.884Z,17.4444444444
2018-07-20T00:24:51.295Z,17.4444444444
2018-07-20T00:25:03.868Z,17.4444444444
2018-07-20T00:25:16.257Z,17.4444444444
2018-07-20T00:25:28.642Z,17.3888888889
2018-07-20T00:25:41.034Z,17.4444444444
2018-07-20T00:25:53.432Z,17.3888888889
2018-07-20T00:26:05.840Z,17.4444444444
2018-07-20T00:26:18.243Z,17.3888888889
2018-07-20T00:26:30.644Z,17.3888888889
2018-07-20T00:26:43.046Z,17.3888888889
2018-07-20T00:26:55.453Z,17.3888888889
2018-07-20T00:27:07.874Z,17.3888888889
2018-07-20T00:27:20.279Z,17.3888888889
2018-07-20T00:27:32.707Z,17.3333333333
2018-07-20T00:27:45.094Z,17.3333333333
2018-07-20T00:27:57.541Z,17.3333333333
2018-07-20T00:28:09.932Z,17.3333333333
2018-07-20T00:28:22.345Z,17.3333333333
2018-07-20T00:28:34.750Z,17.3333333333
2018-07-20T00:28:47.135Z,17.3333333333
2018-07-20T00:28:59.528Z,17.3333333333
2018-07-20T00:29:11.931Z,17.3333333333
2018-07-20T00:29:24.329Z,17.3333333333
2018-07-20T00:29:36.730Z,17.2777777778
2018-07-20T00:29:49.115Z,17.2777777778
2018-07-20T00:30:01.545Z,17.2777777778
2018-07-20T00:30:13.954Z,17.2777777778
2018-07-20T00:30:27.031Z,17.2777777778
2018-07-20T00:30:39.584Z,17.2777777778
2018-07-20T00:30:52.142Z,17.2222222222
2018-07-20T00:31:04.529Z,17.2222222222
2018-07-20T00:31:17.096Z,17.2222222222
2018-07-20T00:31:29.498Z,17.2222222222
2018-07-20T00:31:41.888Z,17.2222222222
2018-07-20T00:31:54.282Z,17.2222222222
2018-07-20T00:32:06.670Z,17.1666666667
2018-07-20T00:32:19.077Z,17.2222222222
2018-07-20T00:32:31.546Z,17.1666666667
2018-07-20T00:32:43.969Z,17.1666666667
2018-07-20T00:32:56.385Z,17.1666666667
2018-07-20T00:33:08.782Z,17.1666666667
2018-07-20T00:33:21.185Z,17.1666666667
2018-07-20T00:33:33.594Z,17.1666666667
2018-07-20T00:33:45.996Z,17.1666666667
2018-07-20T00:33:58.437Z,17.1666666667
2018-07-20T00:34:10.827Z,17.1111111111
2018-07-20T00:34:23.231Z,17.1666666667
2018-07-20T00:34:35.646Z,17.1111111111
2018-07-20T00:34:48.047Z,17.0555555556
2018-07-20T00:35:00.473Z,17.0555555556
2018-07-20T00:35:12.893Z,17.0555555556
2018-07-20T00:35:25.282Z,17.0555555556
2018-07-20T00:35:37.683Z,17.1111111111
2018-07-20T00:35:50.083Z,17.0555555556
2018-07-20T00:36:02.486Z,17.0555555556
2018-07-20T00:36:14.887Z,17.0555555556
2018-07-20T00:36:27.292Z,17.0555555556
2018-07-20T00:36:39.689Z,17
2018-07-20T00:36:52.088Z,17.0555555556
2018-07-20T00:37:04.472Z,17.0555555556
2018-07-20T00:37:16.878Z,17
2018-07-20T00:37:29.365Z,17
2018-07-20T00:37:41.785Z,17
2018-07-20T00:37:54.178Z,17
2018-07-20T00:38:06.604Z,16.9444444444
2018-07-20T00:38:19.012Z,16.9444444444
2018-07-20T00:38:31.443Z,16.9444444444
2018-07-20T00:38:43.899Z,16.9444444444
2018-07-20T00:38:56.279Z,16.8888888889
2018-07-20T00:39:08.680Z,16.9444444444
2018-07-20T00:39:21.069Z,16.9444444444
2018-07-20T00:39:33.457Z,16.9444444444
2018-07-20T00:39:45.856Z,16.9444444444
2018-07-20T00:39:58.257Z,16.8888888889
2018-07-20T00:40:10.671Z,16.9444444444
2018-07-20T00:40:23.089Z,16.8888888889
2018-07-20T00:40:35.491Z,16.8888888889
2018-07-20T00:40:47.934Z,16.8888888889
2018-07-20T00:41:00.337Z,16.8888888889
2018-07-20T00:41:12.877Z,16.8888888889
2018-07-20T00:41:25.407Z,16.8333333333
2018-07-20T00:41:37.814Z,16.8888888889
2018-07-20T00:41:50.219Z,16.8333333333
2018-07-20T00:42:02.651Z,16.8333333333
2018-07-20T00:42:15.051Z,16.8333333333
2018-07-20T00:42:27.540Z,16.8333333333
2018-07-20T00:42:39.930Z,16.8333333333
2018-07-20T00:42:52.338Z,16.8333333333
2018-07-20T00:43:04.727Z,16.8333333333
2018-07-20T00:43:17.163Z,16.8333333333
2018-07-20T00:43:29.571Z,16.7777777778
2018-07-20T00:43:41.964Z,16.8333333333
2018-07-20T00:43:54.381Z,16.8333333333
2018-07-20T00:44:06.781Z,16.8333333333
2018-07-20T00:44:19.200Z,16.7777777778
2018-07-20T00:44:31.616Z,16.7777777778
2018-07-20T00:44:44.011Z,16.7777777778
2018-07-20T00:44:56.397Z,16.7777777778
2018-07-20T00:45:08.871Z,16.7777777778
2018-07-20T00:45:21.287Z,16.7777777778
2018-07-20T00:45:33.690Z,16.7222222222
2018-07-20T00:45:46.146Z,16.7222222222
2018-07-20T00:45:58.573Z,16.7777777778
2018-07-20T00:46:11.005Z,16.7777777778
2018-07-20T00:46:23.428Z,16.7222222222
2018-07-20T00:46:35.815Z,16.7222222222
2018-07-20T00:46:48.204Z,16.7222222222
2018-07-20T00:47:00.593Z,16.7222222222
2018-07-20T00:47:12.995Z,16.7222222222
2018-07-20T00:47:25.375Z,16.7222222222
2018-07-20T00:47:37.781Z,16.7222222222
2018-07-20T00:47:50.168Z,16.7222222222
2018-07-20T00:48:02.575Z,16.6666666667
2018-07-20T00:48:14.977Z,16.6666666667
2018-07-20T00:48:27.422Z,16.6666666667
2018-07-20T00:48:39.833Z,16.6666666667
2018-07-20T00:48:52.449Z,16.6666666667
2018-07-20T00:49:04.854Z,16.6666666667
2018-07-20T00:49:17.255Z,16.6666666667
2018-07-20T00:49:29.657Z,16.6666666667
2018-07-20T00:49:42.060Z,16.6666666667
2018-07-20T00:49:54.473Z,16.6666666667
2018-07-20T00:50:06.933Z,16.6111111111
2018-07-20T00:50:19.356Z,16.6111111111
2018-07-20T00:50:31.742Z,16.6111111111
2018-07-20T00:50:44.149Z,16.6111111111
2018-07-20T00:50:56.538Z,16.6111111111
2018-07-20T00:51:08.933Z,16.6111111111
2018-07-20T00:51:21.323Z,16.6111111111
2018-07-20T00:51:33.764Z,16.6111111111
2018-07-20T00:51:46.171Z,16.6111111111
2018-07-20T00:51:58.601Z,16.6111111111
2018-07-20T00:52:11.029Z,16.5555555556
2018-07-20T00:52:23.539Z,16.6111111111
2018-07-20T00:52:35.933Z,16.5555555556
2018-07-20T00:52:48.341Z,16.5555555556
2018-07-20T00:53:00.740Z,16.5555555556
2018-07-20T00:53:13.141Z,16.5555555556
2018-07-20T00:53:25.553Z,16.5555555556
2018-07-20T00:53:37.952Z,16.5555555556
2018-07-20T00:53:50.367Z,16.5
2018-07-20T00:54:02.782Z,16.5555555556
2018-07-20T00:54:15.377Z,16.5555555556
2018-07-20T00:54:27.939Z,16.5
2018-07-20T00:54:40.335Z,16.5
2018-07-20T00:54:52.752Z,16.5
2018-07-20T00:55:05.165Z,16.5
2018-07-20T00:55:17.569Z,16.5
2018-07-20T00:55:29.969Z,16.5
2018-07-20T00:55:42.381Z,16.5
2018-07-20T00:55:54.820Z,16.5
2018-07-20T00:56:07.223Z,16.5
2018-07-20T00:56:19.605Z,16.4444444444
2018-07-20T00:56:32.169Z,16.5
2018-07-20T00:56:44.571Z,16.4444444444
2018-07-20T00:56:56.987Z,16.4444444444
2018-07-20T00:57:09.375Z,16.4444444444
2018-07-20T00:57:21.814Z,16.4444444444
2018-07-20T00:57:34.229Z,16.4444444444
2018-07-20T00:57:46.835Z,16.4444444444
2018-07-20T00:57:59.412Z,16.3888888889
2018-07-20T00:58:12.180Z,16.4444444444
2018-07-20T00:58:24.577Z,16.4444444444
2018-07-20T00:58:36.966Z,16.4444444444
2018-07-20T00:58:49.351Z,16.4444444444
2018-07-20T00:59:01.749Z,16.3888888889
2018-07-20T00:59:14.206Z,16.3888888889
2018-07-20T00:59:26.614Z,16.3888888889
2018-07-20T00:59:39.040Z,16.3888888889
2018-07-20T00:59:51.469Z,16.3888888889
2018-07-20T01:00:03.997Z,16.3888888889
2018-07-20T01:00:16.499Z,16.3888888889
2018-07-20T01:00:29.163Z,16.3888888889
2018-07-20T01:00:41.592Z,16.3888888889
2018-07-20T01:00:48.332Z,16.3888888889
2018-07-20T01:01:00.750Z,16.3888888889
2018-07-20T01:01:13.193Z,16.3888888889
2018-07-20T01:01:25.631Z,16.3888888889
2018-07-20T01:01:38.064Z,16.3888888889
2018-07-20T01:01:50.477Z,16.3888888889
2018-07-20T01:02:03.010Z,16.3888888889
2018-07-20T01:02:15.417Z,16.3888888889
2018-07-20T01:02:27.840Z,16.3888888889
2018-07-20T01:02:40.263Z,16.3888888889
2018-07-20T01:02:52.664Z,16.3888888889
2018-07-20T01:03:05.081Z,16.3888888889
2018-07-20T01:03:17.500Z,16.3333333333
2018-07-20T01:03:29.908Z,16.3333333333
2018-07-20T01:03:42.455Z,16.3333333333
2018-07-20T01:03:54.858Z,16.3333333333
2018-07-20T01:04:07.279Z,16.3888888889
2018-07-20T01:04:19.673Z,16.3333333333
2018-07-20T01:04:32.093Z,16.3333333333
2018-07-20T01:04:44.499Z,16.3333333333
2018-07-20T01:04:56.907Z,16.3333333333
2018-07-20T01:05:09.343Z,16.3333333333
2018-07-20T01:05:21.813Z,16.3333333333
2018-07-20T01:05:35.009Z,16.3333333333
2018-07-20T01:05:47.483Z,16.3333333333
2018-07-20T01:05:59.899Z,16.3333333333
2018-07-20T01:06:12.333Z,16.3333333333
2018-07-20T01:06:24.778Z,16.3333333333
2018-07-20T01:06:37.216Z,16.3333333333
2018-07-20T01:06:49.630Z,16.3333333333
2018-07-20T01:07:02.021Z,16.3333333333
2018-07-20T01:07:14.433Z,16.3333333333
2018-07-20T01:07:26.838Z,16.3333333333
2018-07-20T01:07:39.232Z,16.2777777778
2018-07-20T01:07:51.641Z,16.3333333333
2018-07-20T01:08:04.047Z,16.3333333333
2018-07-20T01:08:16.457Z,16.3333333333
2018-07-20T01:08:28.845Z,16.3333333333
2018-07-20T01:08:41.274Z,16.2777777778
2018-07-20T01:08:53.801Z,16.2777777778
2018-07-20T01:09:06.203Z,16.2777777778
2018-07-20T01:09:18.621Z,16.2777777778
2018-07-20T01:09:31.034Z,16.2777777778
2018-07-20T01:09:43.433Z,16.2777777778
2018-07-20T01:09:55.832Z,16.2777777778
2018-07-20T01:10:08.241Z,16.2777777778
2018-07-20T01:10:20.685Z,16.2777777778
2018-07-20T01:10:33.101Z,16.2777777778
2018-07-20T01:10:45.510Z,16.2777777778
2018-07-20T01:10:57.925Z,16.2777777778
2018-07-20T01:11:10.329Z,16.2777777778
2018-07-20T01:11:22.726Z,16.3333333333
2018-07-20T01:11:35.128Z,16.2777777778
2018-07-20T01:11:47.518Z,16.2777777778
2018-07-20T01:11:59.899Z,16.2777777778
2018-07-20T01:12:12.319Z,16.2777777778
2018-07-20T01:12:24.702Z,16.3333333333
2018-07-20T01:12:37.098Z,16.2777777778
2018-07-20T01:12:49.487Z,16.2777777778
2018-07-20T01:13:02.125Z,16.2777777778
2018-07-20T01:13:14.548Z,16.2777777778
2018-07-20T01:13:27.083Z,16.2777777778
2018-07-20T01:13:39.496Z,16.2777777778
2018-07-20T01:13:51.890Z,16.2777777778
2018-07-20T01:14:04.341Z,16.2777777778
2018-07-20T01:14:16.746Z,16.2777777778
2018-07-20T01:14:29.149Z,16.2777777778
2018-07-20T01:14:41.555Z,16.3333333333
2018-07-20T01:14:53.953Z,16.2777777778
2018-07-20T01:15:06.364Z,16.2777777778
2018-07-20T01:15:18.776Z,16.2777777778
2018-07-20T01:15:31.181Z,16.2777777778
2018-07-20T01:15:43.659Z,16.2777777778
2018-07-20T01:15:56.065Z,16.2777777778
2018-07-20T01:16:08.477Z,16.2777777778
2018-07-20T01:16:20.868Z,16.2777777778
2018-07-20T01:16:33.258Z,16.2777777778
2018-07-20T01:16:45.685Z,16.2777777778
2018-07-20T01:16:58.084Z,16.2777777778
2018-07-20T01:17:10.475Z,16.2777777778
2018-07-20T01:17:22.869Z,16.2777777778
2018-07-20T01:17:35.261Z,16.2777777778
2018-07-20T01:17:47.702Z,16.2777777778
2018-07-20T01:18:00.097Z,16.2777777778
2018-07-20T01:18:12.527Z,16.2777777778
2018-07-20T01:18:24.973Z,16.2777777778
2018-07-20T01:18:37.350Z,16.2777777778
2018-07-20T01:18:49.750Z,16.2222222222
2018-07-20T01:19:02.360Z,16.2777777778
2018-07-20T01:19:14.774Z,16.2777777778
2018-07-20T01:19:27.184Z,16.2222222222
2018-07-20T01:19:39.572Z,16.2222222222
2018-07-20T01:19:51.971Z,16.2222222222
2018-07-20T01:20:04.373Z,16.2222222222
2018-07-20T01:20:16.756Z,16.2222222222
2018-07-20T01:20:29.142Z,16.2222222222
2018-07-20T01:20:41.630Z,16.2222222222
2018-07-20T01:20:54.053Z,16.2222222222
2018-07-20T01:21:06.523Z,16.2222222222
2018-07-20T01:21:18.940Z,16.2222222222
2018-07-20T01:21:31.339Z,16.1666666667
2018-07-20T01:21:43.730Z,16.1666666667
2018-07-20T01:21:56.124Z,16.1666666667
2018-07-20T01:22:08.532Z,16.1666666667
2018-07-20T01:22:20.926Z,16.1666666667
2018-07-20T01:22:33.321Z,16.1666666667
2018-07-20T01:22:45.724Z,16.1666666667
2018-07-20T01:22:58.103Z,16.1666666667
2018-07-20T01:23:10.496Z,16.1666666667
2018-07-20T01:23:22.891Z,16.1666666667
2018-07-20T01:23:35.298Z,16.1666666667
2018-07-20T01:23:47.690Z,16.1666666667
2018-07-20T01:24:00.072Z,16.1666666667
2018-07-20T01:24:12.491Z,16.1666666667
2018-07-20T01:24:24.898Z,16.1666666667
2018-07-20T01:24:37.293Z,16.1666666667
2018-07-20T01:24:49.689Z,16.1666666667
2018-07-20T01:25:02.186Z,16.1666666667
2018-07-20T01:25:14.585Z,16.1666666667
2018-07-20T01:25:27.005Z,16.1666666667
2018-07-20T01:25:39.408Z,16.1666666667
2018-07-20T01:25:51.783Z,16.1666666667
2018-07-20T01:26:04.169Z,16.1666666667
2018-07-20T01:26:16.562Z,16.1666666667
2018-07-20T01:26:28.949Z,16.1666666667
2018-07-20T01:26:41.340Z,16.1666666667
2018-07-20T01:26:53.745Z,16.1666666667
2018-07-20T01:27:06.151Z,16.1666666667
2018-07-20T01:27:18.539Z,16.1666666667
2018-07-20T01:27:30.962Z,16.1666666667
2018-07-20T01:27:43.383Z,16.1666666667
2018-07-20T01:27:55.775Z,16.1666666667
2018-07-20T01:28:08.177Z,16.1666666667
2018-07-20T01:28:20.576Z,16.1111111111
2018-07-20T01:28:32.996Z,16.1111111111
2018-07-20T01:28:45.397Z,16.1666666667
2018-07-20T01:28:57.814Z,16.1666666667
2018-07-20T01:29:10.218Z,16.1666666667
2018-07-20T01:29:22.651Z,16.1666666667
2018-07-20T01:29:35.035Z,16.1111111111
2018-07-20T01:29:47.422Z,16.1111111111
2018-07-20T01:29:59.820Z,16.1111111111
2018-07-20T01:30:12.336Z,16.1111111111
2018-07-20T01:30:24.747Z,16.1111111111
2018-07-20T01:30:37.136Z,16.1111111111
2018-07-20T01:30:49.686Z,16.1111111111
2018-07-20T01:31:02.154Z,16.1111111111
2018-07-20T01:31:14.777Z,16.1111111111
2018-07-20T01:31:27.196Z,16.1111111111
2018-07-20T01:31:39.615Z,16.1111111111
2018-07-20T01:31:52.019Z,16.1111111111
2018-07-20T01:32:04.468Z,16.1111111111
2018-07-20T01:32:16.864Z,16.1111111111
2018-07-20T01:32:29.372Z,16.1111111111
2018-07-20T01:32:41.783Z,16.1111111111
2018-07-20T01:32:54.176Z,16.1111111111
2018-07-20T01:33:06.596Z,16.0555555556
2018-07-20T01:33:18.995Z,16.0555555556
2018-07-20T01:33:31.400Z,16.0555555556
2018-07-20T01:33:43.787Z,16.0555555556
2018-07-20T01:33:56.184Z,16.0555555556
2018-07-20T01:34:08.590Z,16.0555555556
2018-07-20T01:34:20.985Z,16.0555555556
2018-07-20T01:34:33.399Z,16.0555555556
2018-07-20T01:34:45.807Z,16.0555555556
2018-07-20T01:34:58.215Z,16.0555555556
2018-07-20T01:35:10.637Z,16.0555555556
2018-07-20T01:35:23.040Z,16.0555555556
2018-07-20T01:35:35.450Z,16.0555555556
2018-07-20T01:35:47.935Z,16.0555555556
2018-07-20T01:36:00.325Z,16.0555555556
2018-07-20T01:36:12.729Z,16.0555555556
2018-07-20T01:36:25.127Z,16.0555555556
2018-07-20T01:36:37.518Z,16
2018-07-20T01:36:49.975Z,16
2018-07-20T01:37:02.372Z,16.0555555556
2018-07-20T01:37:14.805Z,16
2018-07-20T01:37:27.399Z,16
2018-07-20T01:37:39.803Z,16
2018-07-20T01:37:52.194Z,16.0555555556
2018-07-20T01:38:04.608Z,16
2018-07-20T01:38:17.001Z,16.0555555556
2018-07-20T01:38:29.385Z,16
2018-07-20T01:38:41.773Z,16
2018-07-20T01:38:54.181Z,16
2018-07-20T01:39:06.585Z,16
2018-07-20T01:39:18.981Z,16
2018-07-20T01:39:31.390Z,16
2018-07-20T01:39:43.805Z,16
2018-07-20T01:39:56.207Z,16
2018-07-20T01:40:08.621Z,16
2018-07-20T01:40:21.016Z,16
2018-07-20T01:40:33.407Z,16
2018-07-20T01:40:45.810Z,16
2018-07-20T01:40:58.251Z,16
2018-07-20T01:41:10.637Z,16
2018-07-20T01:41:23.036Z,15.9444444444
2018-07-20T01:41:35.435Z,16
2018-07-20T01:41:47.854Z,16
2018-07-20T01:42:00.243Z,16
2018-07-20T01:42:12.631Z,15.9444444444
2018-07-20T01:42:25.070Z,15.9444444444
2018-07-20T01:42:37.455Z,15.9444444444
2018-07-20T01:42:49.862Z,15.9444444444
2018-07-20T01:43:02.252Z,15.9444444444
2018-07-20T01:43:14.642Z,15.9444444444
2018-07-20T01:43:27.039Z,15.9444444444
2018-07-20T01:43:39.430Z,15.9444444444
2018-07-20T01:43:51.822Z,15.9444444444
2018-07-20T01:44:04.224Z,15.9444444444
2018-07-20T01:44:16.639Z,15.9444444444
2018-07-20T01:44:29.064Z,15.9444444444
2018-07-20T01:44:41.457Z,15.8888888889
2018-07-20T01:44:53.850Z,15.9444444444
2018-07-20T01:45:06.244Z,15.9444444444
2018-07-20T01:45:18.698Z,15.9444444444
2018-07-20T01:45:31.121Z,15.9444444444
2018-07-20T01:45:43.530Z,15.9444444444
2018-07-20T01:45:55.915Z,15.8888888889
2018-07-20T01:46:08.305Z,15.8888888889
2018-07-20T01:46:20.716Z,15.8888888889
2018-07-20T01:46:33.109Z,15.8888888889
2018-07-20T01:46:45.514Z,15.8888888889
2018-07-20T01:46:57.913Z,15.8888888889
2018-07-20T01:47:10.327Z,15.8888888889
2018-07-20T01:47:22.715Z,15.8888888889
2018-07-20T01:47:35.148Z,15.8888888889
2018-07-20T01:47:47.559Z,15.8888888889
2018-07-20T01:47:59.973Z,15.8888888889
2018-07-20T01:48:12.396Z,15.8888888889
2018-07-20T01:48:24.788Z,15.8888888889
2018-07-20T01:48:37.191Z,15.8888888889
2018-07-20T01:48:49.747Z,15.8888888889
2018-07-20T01:49:02.182Z,15.8888888889
2018-07-20T01:49:14.577Z,15.8333333333
2018-07-20T01:49:26.975Z,15.8333333333
2018-07-20T01:49:39.375Z,15.8888888889
2018-07-20T01:49:51.798Z,15.8333333333
2018-07-20T01:50:04.199Z,15.8888888889
2018-07-20T01:50:16.590Z,15.8888888889
2018-07-20T01:50:29.042Z,15.8888888889
2018-07-20T01:50:41.482Z,15.8888888889
2018-07-20T01:50:53.869Z,15.8888888889
2018-07-20T01:51:06.260Z,15.8888888889
2018-07-20T01:51:18.683Z,15.8888888889
2018-07-20T01:51:31.067Z,15.8888888889
2018-07-20T01:51:43.475Z,15.8888888889
2018-07-20T01:51:55.881Z,15.8888888889
2018-07-20T01:52:08.294Z,15.8888888889
2018-07-20T01:52:20.706Z,15.8888888889
2018-07-20T01:52:33.126Z,15.8888888889
2018-07-20T01:52:45.524Z,15.8888888889
2018-07-20T01:52:57.902Z,15.9444444444
2018-07-20T01:53:10.288Z,15.8888888889
2018-07-20T01:53:22.687Z,15.9444444444
2018-07-20T01:53:35.078Z,15.8888888889
2018-07-20T01:53:47.468Z,15.9444444444
2018-07-20T01:53:59.873Z,15.8888888889
2018-07-20T01:54:12.408Z,15.9444444444
2018-07-20T01:54:24.814Z,15.9444444444
2018-07-20T01:54:37.198Z,15.9444444444
2018-07-20T01:54:49.582Z,15.9444444444
2018-07-20T01:55:02.128Z,15.9444444444
2018-07-20T01:55:14.527Z,15.9444444444
2018-07-20T01:55:26.945Z,15.9444444444
2018-07-20T01:55:39.377Z,15.9444444444
2018-07-20T01:55:51.763Z,15.9444444444
2018-07-20T01:56:04.198Z,15.9444444444
2018-07-20T01:56:16.599Z,15.9444444444
2018-07-20T01:56:29.007Z,15.9444444444
2018-07-20T01:56:41.400Z,15.9444444444
2018-07-20T01:56:53.777Z,15.9444444444
2018-07-20T01:57:06.175Z,15.9444444444
2018-07-20T01:57:18.598Z,15.9444444444
2018-07-20T01:57:30.991Z,15.9444444444
2018-07-20T01:57:43.387Z,15.9444444444
2018-07-20T01:57:55.834Z,15.9444444444
2018-07-20T01:58:08.258Z,15.9444444444
2018-07-20T01:58:20.943Z,15.9444444444
2018-07-20T01:58:33.332Z,15.9444444444
2018-07-20T01:58:45.743Z,15.9444444444
2018-07-20T01:58:58.132Z,15.9444444444
2018-07-20T01:59:10.547Z,15.9444444444
2018-07-20T01:59:22.953Z,15.8888888889
2018-07-20T01:59:35.347Z,15.8888888889
2018-07-20T01:59:47.793Z,15.9444444444
2018-07-20T02:00:00.201Z,15.8888888889
2018-07-20T02:00:12.688Z,15.9444444444
2018-07-20T02:00:25.250Z,15.8888888889
2018-07-20T02:00:37.656Z,15.8888888889
2018-07-20T02:00:50.074Z,15.8888888889
2018-07-20T02:01:02.493Z,15.8888888889
2018-07-20T02:01:14.915Z,15.8888888889
2018-07-20T02:01:27.353Z,15.8888888889
2018-07-20T02:01:39.772Z,15.8888888889
2018-07-20T02:01:52.307Z,15.8888888889
2018-07-20T02:02:04.706Z,15.8888888889
2018-07-20T02:02:17.123Z,15.8888888889
2018-07-20T02:02:29.599Z,15.8888888889
2018-07-20T02:02:41.990Z,15.8888888889
2018-07-20T02:02:54.401Z,15.8888888889
2018-07-20T02:03:06.809Z,15.8888888889
2018-07-20T02:03:19.209Z,15.8888888889
2018-07-20T02:03:31.619Z,15.8888888889
2018-07-20T02:03:44.225Z,15.8888888889
2018-07-20T02:03:56.637Z,15.8888888889
2018-07-20T02:04:09.030Z,15.8333333333
2018-07-20T02:04:21.634Z,15.8888888889
2018-07-20T02:04:34.072Z,15.8888888889
2018-07-20T02:04:46.469Z,15.8888888889
2018-07-20T02:04:58.873Z,15.8888888889
2018-07-20T02:05:11.298Z,15.8888888889
2018-07-20T02:05:23.856Z,15.8888888889
2018-07-20T02:05:36.261Z,15.8888888889
2018-07-20T02:05:48.654Z,15.8888888889
2018-07-20T02:06:01.051Z,15.8888888889
2018-07-20T02:06:13.464Z,15.8888888889
2018-07-20T02:06:25.854Z,15.8888888889
2018-07-20T02:06:38.260Z,15.8888888889
2018-07-20T02:06:50.730Z,15.8888888889
2018-07-20T02:07:03.118Z,15.8888888889
2018-07-20T02:07:15.572Z,15.8888888889
2018-07-20T02:07:27.972Z,15.8888888889
2018-07-20T02:07:40.373Z,15.8888888889
2018-07-20T02:07:52.788Z,15.8888888889
2018-07-20T02:08:05.196Z,15.8888888889
2018-07-20T02:08:17.599Z,15.8888888889
2018-07-20T02:08:29.985Z,15.8888888889
2018-07-20T02:08:42.386Z,15.8888888889
2018-07-20T02:08:54.799Z,15.8888888889
2018-07-20T02:09:07.208Z,15.8888888889
2018-07-20T02:09:19.595Z,15.8888888889
2018-07-20T02:09:32.007Z,15.8888888889
2018-07-20T02:09:44.399Z,15.8888888889
2018-07-20T02:09:56.800Z,15.8888888889
2018-07-20T02:10:09.204Z,15.8888888889
2018-07-20T02:10:21.663Z,15.8888888889
2018-07-20T02:10:34.069Z,15.8888888889
2018-07-20T02:10:46.461Z,15.9444444444